Time;durP1;ratioP1;P1;durP2;ratioP2;P2;SDS_P1;SDS_P2;PMS_P1;PMS_P2;Temp;Humidity;BMP_temperature;BMP_pressure;BME280_temperature;BME280_humidity;BME280_pressure;Samples;Min_cycle;Max_cycle;Signal;HPM_P1;HPM_P2
2022/12/20 00:02:14;;;;;;;7.20;5.45;;;;;;;;;;5095826;28;20044;-71
2022/12/20 00:04:40;;;;;;;8.40;4.80;;;;;;;;;;5092000;28;20548;-70
2022/12/20 00:07:06;;;;;;;7.85;5.00;;;;;;;;;;5090306;28;20115;-70
2022/12/20 00:09:32;;;;;;;7.15;4.18;;;;;;;;;;5091697;28;20404;-71
2022/12/20 00:11:58;;;;;;;7.72;5.07;;;;;;;;;;5091121;28;20055;-70
2022/12/20 00:14:24;;;;;;;7.00;4.50;;;;;;;;;;5094818;28;20040;-70
2022/12/20 00:16:50;;;;;;;7.32;4.55;;;;;;;;;;5090701;28;20536;-70
2022/12/20 00:19:17;;;;;;;9.57;4.60;;;;;;;;;;5089982;28;20038;-70
2022/12/20 00:21:43;;;;;;;6.38;4.28;;;;;;;;;;5090242;28;20032;-71
2022/12/20 00:24:09;;;;;;;8.52;6.13;;;;;;;;;;5090846;28;20503;-70
2022/12/20 00:26:36;;;;;;;10.95;4.88;;;;;;;;;;5090422;28;20028;-71
2022/12/20 00:29:03;;;;;;;8.27;4.45;;;;;;;;;;5090635;28;20035;-71
2022/12/20 00:31:30;;;;;;;6.53;4.70;;;;;;;;;;5088501;28;20036;-70
2022/12/20 00:33:56;;;;;;;8.20;4.55;;;;;;;;;;5076095;28;20093;-71
2022/12/20 00:36:24;;;;;;;6.03;4.53;;;;;;;;;;5096541;28;20046;-70
2022/12/20 00:38:51;;;;;;;7.63;4.85;;;;;;;;;;5067003;28;20425;-70
2022/12/20 00:41:19;;;;;;;5.70;4.00;;;;;;;;;;5090359;28;20039;-69
2022/12/20 00:43:45;;;;;;;6.70;4.00;;;;;;;;;;5089529;28;20108;-70
2022/12/20 00:46:12;;;;;;;8.82;4.70;;;;;;;;;;5089251;28;20067;-70
2022/12/20 00:48:38;;;;;;;6.13;4.22;;;;;;;;;;5089267;28;20036;-70
2022/12/20 00:51:15;;;;;;;6.30;4.18;;;;;;;;;;5091855;28;20039;-70
2022/12/20 00:53:41;;;;;;;7.38;4.13;;;;;;;;;;5085929;28;20463;-70
2022/12/20 00:56:08;;;;;;;5.38;3.38;;;;;;;;;;5097252;28;20043;-71
2022/12/20 00:58:39;;;;;;;7.03;3.97;;;;;;;;;;5054328;28;20067;-70
2022/12/20 01:01:05;;;;;;;10.05;4.25;;;;;;;;;;5089058;28;20042;-70
2022/12/20 01:03:31;;;;;;;7.53;4.45;;;;;;;;;;5091746;28;20066;-70
2022/12/20 01:05:59;;;;;;;6.68;4.57;;;;;;;;;;5084074;28;20115;-70
2022/12/20 01:08:26;;;;;;;10.88;4.80;;;;;;;;;;5090746;28;20393;-70
2022/12/20 01:11:28;;;;;;;5.82;3.72;;;;;;;;;;5091983;28;20458;-70
2022/12/20 01:13:55;;;;;;;5.90;4.28;;;;;;;;;;5031375;28;20064;-69
2022/12/20 01:16:26;;;;;;;11.52;4.53;;;;;;;;;;5079953;28;20056;-70
2022/12/20 01:18:53;;;;;;;6.22;4.03;;;;;;;;;;5082424;28;20036;-70
2022/12/20 01:21:20;;;;;;;7.45;4.47;;;;;;;;;;5088430;28;20548;-70
2022/12/20 01:23:46;;;;;;;9.45;4.47;;;;;;;;;;5094294;28;20080;-71
2022/12/20 01:26:16;;;;;;;6.28;4.07;;;;;;;;;;5071659;28;20036;-69
2022/12/20 01:28:44;;;;;;;7.18;4.72;;;;;;;;;;5079577;28;20068;-70
2022/12/20 01:31:12;;;;;;;5.50;4.38;;;;;;;;;;5085236;28;20463;-70
2022/12/20 01:33:38;;;;;;;6.90;4.47;;;;;;;;;;5089407;28;20123;-70
2022/12/20 01:36:05;;;;;;;8.82;4.32;;;;;;;;;;5091632;28;20071;-71
2022/12/20 01:38:32;;;;;;;7.70;3.90;;;;;;;;;;5090812;28;20040;-70
2022/12/20 01:40:59;;;;;;;7.38;4.32;;;;;;;;;;5094526;28;20036;-70
2022/12/20 01:43:26;;;;;;;7.10;4.10;;;;;;;;;;5102546;28;20075;-70
2022/12/20 01:45:52;;;;;;;5.25;3.80;;;;;;;;;;5075759;28;20501;-70
2022/12/20 01:48:22;;;;;;;5.60;4.03;;;;;;;;;;5088502;28;20259;-70
2022/12/20 01:50:48;;;;;;;9.15;4.82;;;;;;;;;;5093434;28;20032;-70
2022/12/20 01:53:15;;;;;;;4.65;3.33;;;;;;;;;;5072157;28;20301;-70
2022/12/20 01:55:42;;;;;;;5.90;3.97;;;;;;;;;;5090977;28;20477;-70
2022/12/20 01:58:09;;;;;;;6.45;4.10;;;;;;;;;;5070330;28;20033;-70
2022/12/20 02:00:36;;;;;;;8.55;4.88;;;;;;;;;;5084221;28;20504;-69
2022/12/20 02:03:05;;;;;;;6.68;4.25;;;;;;;;;;5087338;28;20326;-71
2022/12/20 02:05:35;;;;;;;6.47;4.35;;;;;;;;;;5072469;28;20043;-70
2022/12/20 02:08:02;;;;;;;6.50;4.45;;;;;;;;;;5092643;28;20477;-71
2022/12/20 02:10:35;;;;;;;5.88;3.70;;;;;;;;;;5107925;28;20032;-70
2022/12/20 02:13:01;;;;;;;;;;;;;;;;;;5081351;28;20641;-70
2022/12/20 02:15:39;;;;;;;7.95;3.95;;;;;;;;;;5093784;28;19966;-70
2022/12/20 02:18:24;;;;;;;5.90;4.47;;;;;;;;;;5090742;28;20078;-70
2022/12/20 02:21:02;;;;;;;6.07;3.92;;;;;;;;;;5073105;28;20135;-70
2022/12/20 02:23:31;;;;;;;7.53;3.75;;;;;;;;;;5087844;28;20036;-70
2022/12/20 02:26:16;;;;;;;6.05;3.83;;;;;;;;;;5074267;28;20152;-71
2022/12/20 02:28:52;;;;;;;6.32;3.67;;;;;;;;;;5074817;28;20495;-70
2022/12/20 02:31:20;;;;;;;7.30;4.07;;;;;;;;;;5066036;28;20389;-71
2022/12/20 02:33:47;;;;;;;5.63;4.20;;;;;;;;;;5093065;28;20513;-70
2022/12/20 02:36:17;;;;;;;6.95;4.15;;;;;;;;;;5092898;28;20036;-70
2022/12/20 02:38:43;;;;;;;5.70;4.32;;;;;;;;;;5096819;28;20138;-70
2022/12/20 02:41:21;;;;;;;7.75;4.47;;;;;;;;;;5095667;28;20043;-69
2022/12/20 02:46:35;;;;;;;9.82;4.90;;;;;;;;;;5077115;28;20047;-70
2022/12/20 02:49:02;;;;;;;5.78;3.42;;;;;;;;;;5087954;28;20032;-71
2022/12/20 02:51:29;;;;;;;7.88;4.28;;;;;;;;;;5092762;28;20039;-70
2022/12/20 02:53:56;;;;;;;5.55;3.72;;;;;;;;;;5088841;28;20096;-70
2022/12/20 02:56:25;;;;;;;6.63;4.28;;;;;;;;;;5103626;28;20505;-70
2022/12/20 02:58:53;;;;;;;7.63;4.07;;;;;;;;;;5092564;28;20043;-70
2022/12/20 03:01:31;;;;;;;8.35;4.18;;;;;;;;;;5093562;28;20036;-71
2022/12/20 03:03:58;;;;;;;5.93;4.07;;;;;;;;;;5054527;28;20055;-71
2022/12/20 03:06:24;;;;;;;6.13;4.30;;;;;;;;;;5100786;28;20096;-71
2022/12/20 03:08:50;;;;;;;7.05;4.30;;;;;;;;;;5091836;28;21917;-70
2022/12/20 03:11:16;;;;;;;5.53;3.80;;;;;;;;;;5093123;28;20047;-70
2022/12/20 03:13:43;;;;;;;7.25;3.85;;;;;;;;;;5085819;28;20047;-69
2022/12/20 03:16:09;;;;;;;6.07;4.13;;;;;;;;;;5098850;28;20184;-70
2022/12/20 03:18:36;;;;;;;7.13;4.78;;;;;;;;;;5090934;28;20036;-70
2022/12/20 03:21:02;;;;;;;10.75;4.10;;;;;;;;;;5094563;28;20115;-70
2022/12/20 03:23:28;;;;;;;6.57;3.58;;;;;;;;;;5098716;28;20040;-70
2022/12/20 03:25:54;;;;;;;5.80;3.97;;;;;;;;;;5093924;28;20520;-70
2022/12/20 03:28:20;;;;;;;7.47;4.00;;;;;;;;;;5092906;28;20111;-70
2022/12/20 03:30:46;;;;;;;6.55;3.72;;;;;;;;;;5091842;28;20114;-70
2022/12/20 03:33:13;;;;;;;4.75;3.70;;;;;;;;;;5076342;28;20048;-70
2022/12/20 03:35:39;;;;;;;5.72;4.10;;;;;;;;;;5078743;28;20032;-70
2022/12/20 03:38:06;;;;;;;10.90;4.88;;;;;;;;;;5075857;28;20054;-70
2022/12/20 03:40:32;;;;;;;5.47;3.75;;;;;;;;;;5091881;28;20549;-70
2022/12/20 03:42:58;;;;;;;8.70;3.90;;;;;;;;;;5060019;28;20486;-70
2022/12/20 03:45:24;;;;;;;5.05;3.63;;;;;;;;;;5088224;28;20101;-70
2022/12/20 03:47:51;;;;;;;6.97;4.25;;;;;;;;;;5077163;28;20035;-70
2022/12/20 03:50:17;;;;;;;5.88;3.88;;;;;;;;;;5084693;28;20486;-70
2022/12/20 03:52:43;;;;;;;6.53;3.67;;;;;;;;;;5078777;28;20424;-70
2022/12/20 03:55:11;;;;;;;9.55;4.32;;;;;;;;;;5089342;28;20170;-70
2022/12/20 03:57:37;;;;;;;8.77;4.40;;;;;;;;;;5071990;28;20537;-70
2022/12/20 04:00:04;;;;;;;7.68;4.95;;;;;;;;;;5071567;28;20125;-70
2022/12/20 04:02:30;;;;;;;7.05;5.05;;;;;;;;;;5079315;28;20035;-70
2022/12/20 04:04:56;;;;;;;6.00;3.97;;;;;;;;;;5076439;28;20413;-70
2022/12/20 04:07:22;;;;;;;10.35;4.25;;;;;;;;;;5093454;28;20494;-70
2022/12/20 04:09:48;;;;;;;7.47;4.35;;;;;;;;;;5092457;28;20028;-70
2022/12/20 04:12:14;;;;;;;7.63;4.50;;;;;;;;;;5091690;28;20575;-70
2022/12/20 04:14:41;;;;;;;11.00;4.93;;;;;;;;;;5095045;28;20048;-70
2022/12/20 04:17:07;;;;;;;10.65;3.92;;;;;;;;;;5076133;28;20405;-71
2022/12/20 04:19:33;;;;;;;6.93;5.18;;;;;;;;;;5072752;28;20138;-70
2022/12/20 04:21:59;;;;;;;5.47;4.03;;;;;;;;;;5090500;28;20149;-70
2022/12/20 04:24:25;;;;;;;10.18;4.38;;;;;;;;;;5090157;28;20186;-70
2022/12/20 04:26:52;;;;;;;6.90;4.05;;;;;;;;;;5078502;28;20126;-70
2022/12/20 04:29:18;;;;;;;4.80;3.65;;;;;;;;;;5089569;28;20525;-70
2022/12/20 04:31:44;;;;;;;6.88;4.30;;;;;;;;;;5081973;28;20040;-70
2022/12/20 04:34:10;;;;;;;6.60;4.40;;;;;;;;;;5093787;28;20126;-70
2022/12/20 04:36:36;;;;;;;9.05;4.65;;;;;;;;;;5088665;28;20140;-70
2022/12/20 04:39:02;;;;;;;5.47;4.32;;;;;;;;;;5099059;27;20040;-71
2022/12/20 04:41:28;;;;;;;5.00;3.90;;;;;;;;;;5084583;28;20066;-70
2022/12/20 04:43:56;;;;;;;5.75;4.10;;;;;;;;;;5073774;28;20043;-70
2022/12/20 04:46:23;;;;;;;7.85;4.47;;;;;;;;;;5090370;28;20036;-70
2022/12/20 04:48:49;;;;;;;8.63;4.72;;;;;;;;;;5106999;27;20115;-70
2022/12/20 04:51:16;;;;;;;7.90;4.88;;;;;;;;;;5074530;28;20523;-70
2022/12/20 04:53:48;;;;;;;7.28;4.15;;;;;;;;;;5089726;28;20159;-70
2022/12/20 04:56:15;;;;;;;9.03;4.77;;;;;;;;;;5095578;28;20078;-71
2022/12/20 04:58:41;;;;;;;8.43;4.55;;;;;;;;;;5091707;28;20541;-69
2022/12/20 05:01:07;;;;;;;7.82;4.55;;;;;;;;;;5089846;28;20510;-70
2022/12/20 05:03:33;;;;;;;6.90;4.32;;;9.00;99.90;;;;;;5089250;28;20046;-71
2022/12/20 05:05:59;;;;;;;4.90;3.83;;;9.50;99.90;;;;;;5088555;28;20043;-71
2022/12/20 05:08:25;;;;;;;6.05;4.25;;;9.50;99.90;;;;;;5089796;28;20397;-70
2022/12/20 05:10:51;;;;;;;6.13;4.43;;;;;;;;;;5092533;28;20241;-70
2022/12/20 05:13:17;;;;;;;6.57;4.28;;;;;;;;;;5090937;28;20140;-70
2022/12/20 05:15:43;;;;;;;8.10;4.95;;;;;;;;;;5084515;28;20032;-70
2022/12/20 05:18:10;;;;;;;6.03;3.95;;;;;;;;;;5081087;28;20040;-70
2022/12/20 05:20:36;;;;;;;10.73;4.65;;;;;;;;;;5089671;28;20496;-70
2022/12/20 05:28:33;;;;;;;7.97;4.65;;;9.60;99.90;;;;;;5089140;28;20051;-70
2022/12/20 05:30:59;;;;;;;6.30;3.83;;;;;;;;;;5043163;28;20036;-70
2022/12/20 05:33:26;;;;;;;7.00;4.15;;;;;;;;;;5089618;28;20040;-69
2022/12/20 05:35:52;;;;;;;5.88;3.90;;;;;;;;;;5089923;28;20382;-70
2022/12/20 05:38:19;;;;;;;8.30;4.10;;;;;;;;;;5081779;28;20044;-70
2022/12/20 05:40:47;;;;;;;9.57;4.35;;;;;;;;;;5078006;28;20044;-70
2022/12/20 05:43:13;;;;;;;5.85;3.70;;;;;;;;;;5069032;28;20040;-70
2022/12/20 05:45:39;;;;;;;5.88;3.70;;;;;;;;;;5079773;28;20394;-70
2022/12/20 05:48:05;;;;;;;6.43;4.28;;;;;;;;;;5083785;28;20035;-71
2022/12/20 05:50:31;;;;;;;6.28;4.03;;;;;;;;;;5069665;28;20036;-70
2022/12/20 05:52:57;;;;;;;9.18;4.40;;;;;;;;;;5078406;28;20597;-71
2022/12/20 05:55:24;;;;;;;6.57;3.85;;;;;;;;;;5036174;28;20134;-70
2022/12/20 05:57:50;;;;;;;7.82;3.88;;;;;;;;;;5083084;28;20052;-70
2022/12/20 06:00:16;;;;;;;7.80;3.88;;;;;;;;;;5078929;28;20047;-70
2022/12/20 06:02:42;;;;;;;5.97;4.40;;;;;;;;;;5062583;28;20071;-70
2022/12/20 06:05:08;;;;;;;6.32;3.70;;;;;;;;;;5075697;28;20335;-71
2022/12/20 06:07:34;;;;;;;6.13;4.07;;;;;;;;;;5093472;28;20054;-70
2022/12/20 06:10:00;;;;;;;5.50;3.72;;;;;;;;;;5077839;28;20035;-71
2022/12/20 06:12:27;;;;;;;6.38;4.35;;;;;;;;;;5081069;28;20048;-70
2022/12/20 06:14:53;;;;;;;4.50;3.05;;;;;;;;;;5075852;28;20071;-69
2022/12/20 06:17:20;;;;;;;6.50;3.45;;;;;;;;;;5070083;28;20094;-70
2022/12/20 06:19:47;;;;;;;8.90;4.10;;;;;;;;;;5088605;28;20051;-70
2022/12/20 06:22:13;;;;;;;5.80;3.70;;;;;;;;;;5085188;28;20625;-70
2022/12/20 06:24:39;;;;;;;7.13;4.40;;;;;;;;;;5071298;28;20035;-70
2022/12/20 06:27:08;;;;;;;11.43;4.68;;;;;;;;;;5093337;28;20123;-70
2022/12/20 06:29:36;;;;;;;5.43;3.58;;;;;;;;;;5075291;28;20385;-70
2022/12/20 06:32:04;;;;;;;4.93;3.72;;;;;;;;;;5094379;28;20040;-70
2022/12/20 06:34:30;;;;;;;6.25;4.28;;;;;;;;;;5092016;28;20043;-71
2022/12/20 06:36:56;;;;;;;7.47;4.05;;;;;;;;;;5085406;28;20040;-70
2022/12/20 06:39:23;;;;;;;7.03;4.00;;;;;;;;;;5085068;28;20544;-70
2022/12/20 06:41:49;;;;;;;7.85;4.43;;;;;;;;;;5090956;28;20032;-70
2022/12/20 06:44:15;;;;;;;7.20;4.55;;;;;;;;;;5082243;28;20465;-70
2022/12/20 06:46:41;;;;;;;7.00;4.82;;;9.70;99.90;;;;;;5085081;28;20524;-70
2022/12/20 06:49:07;;;;;;;7.78;4.32;;;;;;;;;;5070745;28;20048;-70
2022/12/20 06:51:33;;;;;;;6.93;4.53;;;;;;;;;;5089970;28;20493;-70
2022/12/20 06:53:59;;;;;;;5.85;4.25;;;;;;;;;;5079550;28;20048;-71
2022/12/20 06:56:26;;;;;;;6.45;4.68;;;;;;;;;;5088211;28;20101;-70
2022/12/20 06:58:52;;;;;;;8.23;4.18;;;;;;;;;;5075133;28;20287;-70
2022/12/20 07:01:18;;;;;;;6.72;4.97;;;;;;;;;;5108260;27;20040;-70
2022/12/20 07:03:44;;;;;;;7.15;4.78;;;;;;;;;;5092879;28;20413;-71
2022/12/20 07:06:11;;;;;;;8.88;4.88;;;;;;;;;;5094377;28;20041;-70
2022/12/20 07:08:37;;;;;;;8.88;5.00;;;;;;;;;;5090186;28;20036;-71
2022/12/20 07:11:04;;;;;;;8.07;5.60;;;;;;;;;;5074262;28;20132;-71
2022/12/20 07:13:30;;;;;;;7.85;5.25;;;;;;;;;;5089161;28;20048;-71
2022/12/20 07:15:58;;;;;;;8.55;4.68;;;;;;;;;;5102735;28;20426;-70
2022/12/20 07:18:24;;;;;;;9.15;4.75;;;;;;;;;;5090194;28;20071;-71
2022/12/20 07:20:50;;;;;;;8.27;5.00;;;;;;;;;;5088644;28;20101;-71
2022/12/20 07:23:17;;;;;;;8.32;4.43;;;;;;;;;;5095032;28;20039;-71
2022/12/20 07:25:43;;;;;;;7.00;4.70;;;;;;;;;;5088271;28;20404;-71
2022/12/20 07:28:10;;;;;;;7.45;4.63;;;;;;;;;;5091564;28;20061;-71
2022/12/20 07:30:36;;;;;;;7.38;4.65;;;;;;;;;;5083512;28;20040;-71
2022/12/20 07:33:03;;;;;;;7.60;5.55;;;;;;;;;;5077089;28;20047;-71
2022/12/20 07:35:29;;;;;;;11.77;5.13;;;;;;;;;;5077324;28;20046;-70
2022/12/20 07:37:55;;;;;;;8.10;5.03;;;;;;;;;;5091071;28;20539;-71
2022/12/20 07:40:21;;;;;;;9.65;5.57;;;;;;;;;;5083666;28;20127;-71
2022/12/20 07:42:47;;;;;;;9.05;5.80;;;;;;;;;;5091231;28;20402;-70
2022/12/20 07:45:14;;;;;;;9.82;5.22;;;;;;;;;;5091025;28;20044;-71
2022/12/20 07:47:40;;;;;;;5.70;4.55;;;;;;;;;;5076467;28;20143;-71
2022/12/20 07:50:07;;;;;;;5.28;4.78;;;;;;;;;;5091650;28;20413;-70
2022/12/20 07:52:34;;;;;;;6.95;4.60;;;;;;;;;;5080579;28;20039;-70
2022/12/20 07:55:02;;;;;;;8.68;5.35;;;;;;;;;;5104434;27;20043;-71
2022/12/20 07:57:34;;;;;;;7.70;5.55;;;;;;;;;;5089863;28;20061;-70
2022/12/20 08:00:01;;;;;;;8.52;4.68;;;;;;;;;;5091167;28;20067;-69
2022/12/20 08:02:32;;;;;;;10.05;4.63;;;;;;;;;;5091181;28;20516;-71
2022/12/20 08:04:58;;;;;;;10.63;4.88;;;;;;;;;;5062090;28;20058;-71
2022/12/20 08:07:26;;;;;;;9.82;5.38;;;;;;;;;;5098847;28;20085;-71
2022/12/20 08:09:52;;;;;;;6.65;4.65;;;;;;;;;;5080882;28;20040;-71
2022/12/20 08:12:20;;;;;;;12.30;5.43;;;;;;;;;;5088119;28;20540;-70
2022/12/20 08:14:46;;;;;;;8.52;4.78;;;;;;;;;;5096630;28;20039;-71
2022/12/20 08:17:13;;;;;;;11.15;4.03;;;;;;;;;;5093084;28;20039;-70
2022/12/20 08:19:39;;;;;;;7.05;4.45;;;;;;;;;;5058776;28;20038;-71
2022/12/20 08:22:05;;;;;;;7.43;4.40;;;;;;;;;;5093161;28;20119;-69
2022/12/20 08:24:33;;;;;;;6.97;4.43;;;;;;;;;;5089451;28;20036;-70
2022/12/20 08:26:59;;;;;;;7.13;4.40;;;;;;;;;;5089353;28;20039;-70
2022/12/20 08:29:25;;;;;;;7.07;4.45;;;;;;;;;;5084754;28;20486;-71
2022/12/20 08:31:51;;;;;;;5.68;3.78;;;;;;;;;;5093320;28;20040;-71
2022/12/20 08:34:18;;;;;;;8.30;4.07;;;;;;;;;;5095988;28;20036;-71
2022/12/20 08:36:44;;;;;;;9.02;4.30;;;;;;;;;;5089401;28;20504;-70
2022/12/20 08:39:10;;;;;;;7.10;4.80;;;;;;;;;;5072087;28;20044;-71
2022/12/20 08:41:36;;;;;;;7.25;3.90;;;;;;;;;;5091279;28;20104;-71
2022/12/20 08:44:06;;;;;;;9.25;4.22;;;;;;;;;;5075431;28;20048;-71
2022/12/20 08:46:32;;;;;;;7.93;4.28;;;;;;;;;;5091092;28;20386;-69
2022/12/20 08:48:58;;;;;;;7.97;4.20;;;10.00;99.90;;;;;;5100744;28;20509;-71
2022/12/20 08:51:24;;;;;;;7.28;3.85;;;;;;;;;;5079487;28;20317;-70
2022/12/20 08:53:51;;;;;;;7.20;3.90;;;;;;;;;;5088779;28;20055;-71
2022/12/20 08:56:18;;;;;;;4.40;3.30;;;;;;;;;;5088324;28;20186;-71
2022/12/20 08:58:45;;;;;;;9.55;3.22;;;;;;;;;;5092741;28;20046;-71
2022/12/20 09:01:12;;;;;;;6.00;3.53;;;;;;;;;;5087559;28;20125;-70
2022/12/20 09:03:39;;;;;;;5.43;3.60;;;10.10;99.90;;;;;;5070804;28;20044;-70
2022/12/20 09:06:09;;;;;;;4.80;3.35;;;;;;;;;;5077287;28;20722;-71
2022/12/20 09:08:37;;;;;;;7.28;4.40;;;;;;;;;;5067617;28;20170;-71
2022/12/20 09:11:07;;;;;;;5.07;3.33;;;;;;;;;;5087959;28;20040;-70
2022/12/20 09:13:33;;;;;;;6.15;4.28;;;;;;;;;;5073106;28;20517;-71
2022/12/20 09:16:01;;;;;;;6.22;3.92;;;;;;;;;;5087861;28;20040;-71
2022/12/20 09:18:27;;;;;;;5.07;3.63;;;;;;;;;;5090717;28;20035;-71
2022/12/20 09:20:53;;;;;;;8.02;4.43;;;;;;;;;;5082562;28;20043;-70
2022/12/20 09:23:19;;;;;;;5.68;3.10;;;;;;;;;;5060128;28;20040;-71
2022/12/20 09:25:45;;;;;;;5.38;3.17;;;;;;;;;;5072080;28;20180;-71
2022/12/20 09:28:11;;;;;;;5.80;3.20;;;;;;;;;;5084888;28;20044;-70
2022/12/20 09:30:38;;;;;;;4.90;3.60;;;;;;;;;;5088076;28;20034;-71
2022/12/20 09:33:04;;;;;;;5.22;3.40;;;;;;;;;;5093697;28;20127;-70
2022/12/20 09:35:32;;;;;;;5.38;3.60;;;;;;;;;;5091112;28;20126;-71
2022/12/20 09:37:58;;;;;;;6.35;3.67;;;;;;;;;;5095003;28;20032;-71
2022/12/20 09:40:26;;;;;;;7.90;3.70;;;;;;;;;;5090921;28;20072;-71
2022/12/20 09:42:52;;;;;;;4.78;3.00;;;;;;;;;;5093410;28;20131;-70
2022/12/20 09:45:25;;;;;;;8.63;3.38;;;;;;;;;;5085470;28;20066;-71
2022/12/20 09:47:51;;;;;;;4.53;3.30;;;;;;;;;;5084577;28;20041;-70
2022/12/20 09:50:19;;;;;;;3.88;2.92;;;;;;;;;;5107949;27;20058;-71
2022/12/20 09:52:57;;;;;;;4.53;3.08;;;;;;;;;;5098151;28;20123;-71
2022/12/20 09:55:28;;;;;;;6.53;3.60;;;;;;;;;;5075051;28;20116;-71
2022/12/20 09:58:14;;;;;;;6.38;3.95;;;;;;;;;;5092361;28;21521;-70
2022/12/20 10:00:45;;;;;;;6.57;3.28;;;;;;;;;;5091714;28;20031;-70
2022/12/20 10:03:13;;;;;;;4.68;3.35;;;;;;;;;;5094448;28;20063;-71
2022/12/20 10:05:45;;;;;;;8.40;3.47;;;;;;;;;;5092229;28;20498;-71
2022/12/20 10:08:14;;;;;;;5.23;3.30;;;;;;;;;;5067279;28;20389;-71
2022/12/20 10:10:57;;;;;;;3.83;3.22;;;;;;;;;;5090266;28;20040;-71
2022/12/20 10:13:23;;;;;;;5.75;3.60;;;;;;;;;;5096346;28;20128;-71
2022/12/20 10:16:12;;;;;;;6.65;3.40;;;;;;;;;;5089831;28;20071;-71
2022/12/20 10:18:50;;;;;;;5.10;3.28;;;;;;;;;;5071924;28;20485;-71
2022/12/20 10:21:40;;;;;;;3.78;2.92;;;;;;;;;;5092464;28;20040;-71
2022/12/20 10:24:20;;;;;;;5.15;3.75;;;;;;;;;;5059015;28;20060;-71
2022/12/20 10:26:49;;;;;;;6.30;2.78;;;;;;;;;;5092553;28;20040;-70
2022/12/20 10:29:16;;;;;;;5.43;3.45;;;;;;;;;;5091181;28;20035;-70
2022/12/20 10:31:42;;;;;;;5.40;3.28;;;;;;;;;;5080134;28;20495;-70
2022/12/20 10:34:08;;;;;;;7.25;3.22;;;;;;;;;;5069482;28;20178;-71
2022/12/20 10:36:36;;;;;;;4.68;3.40;;;;;;;;;;5086998;28;20050;-70
2022/12/20 10:39:04;;;;;;;4.60;3.00;;;;;;;;;;5090219;28;20401;-71
2022/12/20 10:41:47;;;;;;;5.72;2.67;;;;;;;;;;5073062;28;20111;-71
2022/12/20 10:44:23;;;;;;;5.60;3.10;;;;;;;;;;5095600;28;20114;-71
2022/12/20 10:46:52;;;;;;;5.25;3.35;;;;;;;;;;5091835;28;20371;-71
2022/12/20 10:49:22;;;;;;;6.57;3.78;;;;;;;;;;5093687;28;20043;-71
2022/12/20 10:51:55;;;;;;;6.25;3.17;;;;;;;;;;5091146;28;20084;-71
2022/12/20 10:54:29;;;;;;;5.88;3.38;;;;;;;;;;5109715;27;20043;-70
2022/12/20 10:56:57;;;;;;;7.75;3.35;;;;;;;;;;5079249;28;20044;-71
2022/12/20 10:59:30;;;;;;;8.02;2.92;;;;;;;;;;5076473;28;21343;-71
2022/12/20 11:01:56;;;;;;;6.07;3.38;;;;;;;;;;5099365;28;20048;-71
2022/12/20 11:04:27;;;;;;;5.88;2.72;;;;;;;;;;5084795;28;20127;-71
2022/12/20 11:06:53;;;;;;;5.75;3.10;;;;;;;;;;5082911;28;20047;-70
2022/12/20 11:09:25;;;;;;;7.97;3.80;;;;;;;;;;5079196;28;20035;-70
2022/12/20 11:11:57;;;;;;;5.28;3.13;;;;;;;;;;5066520;28;20139;-71
2022/12/20 11:14:23;;;;;;;7.10;3.28;;;;;;;;;;5091272;28;20043;-70
2022/12/20 11:16:51;;;;;;;4.45;3.08;;;;;;;;;;5075182;28;20047;-71
2022/12/20 11:19:20;;;;;;;4.47;2.97;;;;;;;;;;5099690;28;20043;-71
2022/12/20 11:21:52;;;;;;;4.32;3.38;;;;;;;;;;5085708;28;20059;-70
2022/12/20 11:24:27;;;;;;;8.13;4.03;;;;;;;;;;5099058;28;20047;-71
2022/12/20 11:27:02;;;;;;;7.20;4.28;;;;;;;;;;5075956;28;20394;-71
2022/12/20 11:29:44;;;;;;;5.20;3.10;;;;;;;;;;5083657;28;20497;-70
2022/12/20 11:32:28;;;;;;;10.10;4.15;;;;;;;;;;5081565;28;20061;-70
2022/12/20 11:35:13;;;;;;;6.60;4.18;;;;;;;;;;5094274;28;20046;-70
2022/12/20 11:37:49;;;;;;;8.98;3.85;;;;;;;;;;5093589;28;20607;-71
2022/12/20 11:40:34;;;;;;;8.43;4.20;;;;;;;;;;5072459;28;20557;-71
2022/12/20 11:43:19;;;;;;;5.80;3.78;;;;;;;;;;5107425;27;20561;-71
2022/12/20 11:46:03;;;;;;;8.00;3.88;;;;;;;;;;5088334;28;20123;-71
2022/12/20 11:48:59;;;;;;;7.53;4.40;;;;;;;;;;5090514;28;20040;-71
2022/12/20 11:51:46;;;;;;;5.93;3.85;;;;;;;;;;5075684;28;20055;-71
2022/12/20 11:54:23;;;;;;;8.85;4.65;;;;;;;;;;5086937;28;20040;-71
2022/12/20 11:56:57;;;;;;;7.22;4.25;;;;;;;;;;5065491;28;20077;-71
2022/12/20 11:59:33;;;;;;;7.68;4.50;;;;;;;;;;5088328;28;20067;-71
2022/12/20 12:02:04;;;;;;;6.70;4.25;;;;;;;;;;5097151;28;20044;-71
2022/12/20 12:04:33;;;;;;;7.05;5.40;;;;;;;;;;5096834;28;20094;-71
2022/12/20 12:07:03;;;;;;;8.50;4.95;;;;;;;;;;5077766;28;20072;-71
2022/12/20 12:09:41;;;;;;;10.73;5.07;;;;;;;;;;5071857;28;20037;-71
2022/12/20 12:12:13;;;;;;;9.48;5.15;;;;;;;;;;5085711;28;20102;-71
2022/12/20 12:14:50;;;;;;;8.40;6.03;;;;;;;;;;5096160;28;20039;-71
2022/12/20 12:17:25;;;;;;;6.65;5.07;;;;;;;;;;5089854;28;20055;-71
2022/12/20 12:19:52;;;;;;;8.07;5.72;;;;;;;;;;5088999;28;20052;-71
2022/12/20 12:22:23;;;;;;;6.80;4.75;;;;;;;;;;5091109;28;20571;-71
2022/12/20 12:24:52;;;;;;;15.63;7.22;;;;;;;;;;5097235;28;20498;-71
2022/12/20 12:27:22;;;;;;;8.82;5.63;;;;;;;;;;5090383;28;20397;-71
2022/12/20 12:29:49;;;;;;;7.55;5.82;;;;;;;;;;5093911;28;20039;-71
2022/12/20 12:32:29;;;;;;;11.35;6.45;;;;;;;;;;5078809;28;20127;-71
2022/12/20 12:35:03;;;;;;;8.50;5.75;;;;;;;;;;5093226;28;20044;-71
2022/12/20 12:37:45;;;;;;;8.30;6.72;;;;;;;;;;5097009;28;20032;-72
2022/12/20 12:40:30;;;;;;;9.25;6.18;;;;;;;;;;5072558;28;20085;-71
2022/12/20 12:43:11;;;;;;;9.48;6.55;;;;;;;;;;5094017;28;20505;-72
2022/12/20 12:45:42;;;;;;;10.07;6.10;;;;;;;;;;5089678;28;20031;-71
2022/12/20 12:48:35;;;;;;;8.68;6.70;;;;;;;;;;5088720;28;20097;-71
2022/12/20 12:51:02;;;;;;;9.25;6.35;;;;;;;;;;5090788;28;20048;-71
2022/12/20 12:53:54;;;;;;;8.40;6.35;;;;;;;;;;5092900;28;20505;-71
2022/12/20 12:56:23;;;;;;;9.13;7.07;;;;;;;;;;5087826;28;20120;-71
2022/12/20 12:59:05;;;;;;;10.80;6.57;;;;;;;;;;5073341;28;20052;-71
2022/12/20 13:01:50;;;;;;;8.27;5.75;;;;;;;;;;5093958;28;20031;-71
2022/12/20 13:04:19;;;;;;;7.72;6.10;;;;;;;;;;5070330;28;20473;-71
2022/12/20 13:06:48;;;;;;;7.20;6.15;;;;;;;;;;5087762;28;20067;-71
2022/12/20 13:09:35;;;;;;;10.10;6.45;;;;;;;;;;5088668;28;20429;-72
2022/12/20 13:12:21;;;;;;;8.98;7.22;;;;;;;;;;5104491;28;20450;-71
2022/12/20 13:14:48;;;;;;;13.98;6.63;;;;;;;;;;5085247;28;20104;-71
2022/12/20 13:17:17;;;;;;;10.15;6.22;;;;;;;;;;5096688;28;20123;-70
2022/12/20 13:19:56;;;;;;;8.65;6.65;;;;;;;;;;5094746;28;20051;-71
2022/12/20 13:22:23;;;;;;;8.48;6.75;;;;;;;;;;5092583;28;20054;-71
2022/12/20 13:25:01;;;;;;;8.57;7.30;;;;;;;;;;5093506;28;20044;-72
2022/12/20 13:27:28;;;;;;;7.38;6.68;;;;;;;;;;5039271;28;20072;-71
2022/12/20 13:29:56;;;;;;;9.75;7.47;;;;;;;;;;5087802;28;20032;-71
2022/12/20 13:32:41;;;;;;;11.68;8.32;;;;;;;;;;5089102;28;20056;-71
2022/12/20 13:35:27;;;;;;;7.75;6.80;;;;;;;;;;5095227;28;20043;-72
2022/12/20 13:38:01;;;;;;;9.95;6.90;;;;;;;;;;5078686;28;20046;-71
2022/12/20 13:40:42;;;;;;;8.57;6.32;;;;;;;;;;5083280;28;20032;-72
2022/12/20 13:43:17;;;;;;;9.88;7.60;;;;;;;;;;5073133;28;20044;-72
2022/12/20 13:45:45;;;;;;;8.40;7.25;;;;;;;;;;5091476;28;20028;-72
2022/12/20 13:48:14;;;;;;;11.75;7.05;;;;;;;;;;5095636;28;20111;-71
2022/12/20 13:50:49;;;;;;;10.30;8.02;;;;;;;;;;5082137;28;20505;-71
2022/12/20 13:53:19;;;;;;;9.27;7.30;;;;;;;;;;5083594;28;20041;-72
2022/12/20 13:55:47;;;;;;;8.77;7.18;;;;;;;;;;5091629;28;20134;-72
2022/12/20 13:58:16;;;;;;;8.65;7.75;;;;;;;;;;5090150;28;20619;-70
2022/12/20 14:00:42;;;;;;;11.43;8.45;;;;;;;;;;5079594;28;20276;-72
2022/12/20 14:03:28;;;;;;;9.27;8.00;;;;;;;;;;5078533;28;20069;-72
2022/12/20 14:05:57;;;;;;;12.25;8.65;;;;;;;;;;5089809;28;20553;-72
2022/12/20 14:08:25;;;;;;;14.50;8.77;;;;;;;;;;5077359;28;20695;-71
2022/12/20 14:10:52;;;;;;;12.95;8.52;;;;;;;;;;5059237;28;20040;-72
2022/12/20 14:13:26;;;;;;;10.35;8.80;;;;;;;;;;5070957;28;20043;-72
2022/12/20 14:15:53;;;;;;;15.20;9.43;;;;;;;;;;5070186;28;20048;-71
2022/12/20 14:18:20;;;;;;;15.80;9.27;;;;;;;;;;5068913;28;20028;-71
2022/12/20 14:20:48;;;;;;;11.18;9.30;;;;;;;;;;5076985;28;20543;-71
2022/12/20 14:23:19;;;;;;;10.85;9.27;;;;;;;;;;5075670;28;20063;-72
2022/12/20 14:25:45;;;;;;;12.75;9.98;;;;;;;;;;5070003;28;20081;-72
2022/12/20 14:28:31;;;;;;;17.70;10.13;;;;;;;;;;5074634;28;20512;-72
2022/12/20 14:30:58;;;;;;;10.85;9.27;;;;;;;;;;5090996;28;20105;-72
2022/12/20 14:33:28;;;;;;;13.20;11.10;;;;;;;;;;5073419;28;20078;-72
2022/12/20 14:35:54;;;;;;;12.68;10.50;;;;;;;;;;5083275;28;20097;-72
2022/12/20 14:38:22;;;;;;;12.35;9.90;;;;;;;;;;5075412;28;20507;-71
2022/12/20 14:40:48;;;;;;;13.23;10.75;;;;;;;;;;5073553;28;20041;-72
2022/12/20 14:43:15;;;;;;;11.65;10.45;;;;;;;;;;5107984;27;20039;-72
2022/12/20 14:45:41;;;;;;;14.52;11.50;;;;;;;;;;5071957;28;20569;-72
2022/12/20 14:48:15;;;;;;;12.88;10.40;;;;;;;;;;5078628;28;20115;-72
2022/12/20 14:50:50;;;;;;;15.10;12.00;;;;;;;;;;5076446;28;20036;-72
2022/12/20 14:53:21;;;;;;;13.27;11.88;;;;;;;;;;5053377;28;20068;-72
2022/12/20 14:55:47;;;;;;;14.57;11.98;;;;;;;;;;5100081;27;20491;-72
2022/12/20 14:58:28;;;;;;;18.23;12.23;;;;;;;;;;5076300;28;20074;-72
2022/12/20 15:00:59;;;;;;;22.10;11.65;;;;;;;;;;5069225;28;20486;-72